Eland, Wisconsin
Current Conditions -  °F | °C
As of 8:15 PM on Friday 24 Oct 2014 (Local Time) from KAIG Reporting Station
Overcast Overcast  
Wind Chill: 52°   Ceiling: 2400
Heat Index: 52°   Visibility: 10mi
Dew Point: 49°   Wind: 6mph
Humidity: 91%   Direction: 200°SSW
Pressure: 29.87"   Gusts: NA
Location:  44.87°N, 89.22°W
Report Text: KAIG 250115Z AUTO 20005KT 10SM OVC024 11/10 A2987 RMK AO2 T01120097
Loading
Personal Weather Stations






























Interactive Weather Map
Tropical Storm Tracking
New forecast layout! Learn more

10-Day Weather Forecast

Advertisements
Track Severe Weather on mobile